Time;durP1;ratioP1;P1;durP2;ratioP2;P2;SDS_P1;SDS_P2;PMS_P1;PMS_P2;Temp;Humidity;BMP_temperature;BMP_pressure;BME280_temperature;BME280_humidity;BME280_pressure;Samples;Min_cycle;Max_cycle;Signal;HPM_P1;HPM_P2
2022/07/25 00:00:44;;;;;;;;;;;;;;;16.66;66.49;100538.90;1413853;93;20312;-85
2022/07/25 00:03:10;;;;;;;;;;;;;;;16.65;66.64;100543.91;1391686;93;20305;-85
2022/07/25 00:05:36;;;;;;;;;;;;;;;16.63;66.45;100544.59;1411895;93;20489;-86
2022/07/25 00:08:04;;;;;;;;;;;;;;;16.57;67.03;100540.84;1414940;93;20328;-86
2022/07/25 00:10:30;;;;;;;;;;;;;;;16.52;67.84;100541.06;1414080;93;20312;-86
2022/07/25 00:12:55;;;;;;;;;;;;;;;16.43;67.57;100540.32;1415292;93;20344;-86
2022/07/25 00:15:21;;;;;;;;;;;;;;;16.32;67.19;100538.09;1410573;93;20350;-86
2022/07/25 00:17:47;;;;;;;;;;;;;;;16.18;68.13;100536.55;1376728;94;20533;-86
2022/07/25 00:20:13;;;;;;;;;;;;;;;16.08;67.77;100529.28;1392393;94;20359;-87
2022/07/25 00:23:16;;;;;;;;;;;;;;;16.02;67.73;100528.67;1393647;94;20373;-89
2022/07/25 00:25:42;;;;;;;;;;;;;;;16.00;68.61;100530.72;1401891;91;20366;-88
2022/07/25 00:28:08;;;;;;;;;;;;;;;16.02;68.58;100528.67;1406775;93;20304;-88
2022/07/25 00:30:34;;;;;;;;;;;;;;;16.03;68.64;100530.35;1391592;93;20300;-87
2022/07/25 00:33:00;;;;;;;;;;;;;;;16.05;68.64;100518.97;1390166;94;20292;-86
2022/07/25 00:35:26;;;;;;;;;;;;;;;16.07;68.59;100524.96;1396797;93;20292;-86
2022/07/25 00:37:53;;;;;;;;;;;;;;;16.08;68.32;100520.45;1407209;93;20359;-85
2022/07/25 00:40:19;;;;;;;;;;;;;;;16.09;68.64;100524.28;1399280;93;20282;-85
2022/07/25 00:42:45;;;;;;;;;;;;;;;16.08;68.45;100517.78;1402427;93;20293;-85
2022/07/25 00:45:12;;;;;;;;;;;;;;;16.08;70.48;100523.94;1400446;93;20884;-86
2022/07/25 00:47:38;;;;;;;;;;;;;;;16.15;70.41;100526.73;1410845;92;20847;-86
2022/07/25 00:50:04;;;;;;;;;;;;;;;16.24;69.86;100525.64;1393912;93;20290;-86
2022/07/25 00:52:30;;;;;;;;;;;;;;;16.31;69.94;100529.23;1389716;94;20305;-86
2022/07/25 00:54:57;;;;;;;;;;;;;;;16.37;69.04;100531.20;1395354;94;20283;-86
2022/07/25 00:57:23;;;;;;;;;;;;;;;16.40;68.55;100527.30;1394554;94;20298;-86
2022/07/25 00:59:49;;;;;;;;;;;;;;;16.41;67.89;100523.12;1396303;92;20268;-88
2022/07/25 01:02:15;;;;;;;;;;;;;;;16.41;68.11;100524.46;1395641;94;20299;-88
2022/07/25 01:04:41;;;;;;;;;;;;;;;16.37;68.99;100525.86;1396554;93;20312;-88
2022/07/25 01:07:08;;;;;;;;;;;;;;;16.35;68.52;100531.05;1374809;94;20366;-88
2022/07/25 01:09:35;;;;;;;;;;;;;;;16.30;69.00;100529.42;1392005;94;21697;-88
2022/07/25 01:12:01;;;;;;;;;;;;;;;16.25;69.37;100524.63;1411458;91;20342;-88
2022/07/25 01:14:28;;;;;;;;;;;;;;;16.18;69.25;100522.37;1388072;94;20405;-87
2022/07/25 01:16:54;;;;;;;;;;;;;;;16.14;69.32;100520.58;1395426;93;20386;-88
2022/07/25 01:19:20;;;;;;;;;;;;;;;16.10;70.40;100527.27;1405856;92;20292;-87
2022/07/25 01:21:52;;;;;;;;;;;;;;;16.08;71.18;100518.61;1389189;93;20458;-83
2022/07/25 01:24:18;;;;;;;;;;;;;;;16.03;70.99;100522.34;1381114;95;20437;-85
2022/07/25 01:26:44;;;;;;;;;;;;;;;16.00;70.57;100521.38;1387563;93;20330;-85
2022/07/25 01:29:10;;;;;;;;;;;;;;;15.96;70.03;100519.55;1396648;93;20366;-85
2022/07/25 01:31:35;;;;;;;;;;;;;;;15.92;70.87;100522.77;1401208;93;20305;-85
2022/07/25 01:34:01;;;;;;;;;;;;;;;15.87;71.30;100521.14;1382048;92;20305;-86
2022/07/25 01:36:27;;;;;;;;;;;;;;;15.81;71.74;100517.86;1399152;91;20805;-85
2022/07/25 01:38:53;;;;;;;;;;;;;;;15.76;70.94;100515.21;1389924;94;20278;-86
2022/07/25 01:41:19;;;;;;;;;;;;;;;15.70;72.28;100505.26;1386695;94;20405;-86
2022/07/25 01:43:45;;;;;;;;;;;;;;;15.62;72.29;100515.13;1398802;93;20305;-85
2022/07/25 01:46:11;;;;;;;;;;;;;;;15.58;71.85;100512.00;1411043;92;20318;-85
2022/07/25 01:48:37;;;;;;;;;;;;;;;15.59;71.94;100514.98;1401387;92;20286;-84
2022/07/25 01:51:03;;;;;;;;;;;;;;;15.62;72.89;100511.13;1389811;94;21400;-84
2022/07/25 01:53:35;;;;;;;;;;;;;;;15.66;72.39;100509.27;1395835;92;20327;-84
2022/07/25 01:56:02;;;;;;;;;;;;;;;15.71;72.14;100504.27;1367148;94;20402;-85
2022/07/25 01:58:28;;;;;;;;;;;;;;;15.78;71.22;100500.38;1428577;91;20339;-84
2022/07/25 02:00:54;;;;;;;;;;;;;;;15.83;70.23;100499.33;1409397;93;20305;-85
2022/07/25 02:03:29;;;;;;;;;;;;;;;15.86;69.07;100498.97;1421449;91;20287;-84
2022/07/25 02:05:57;;;;;;;;;;;;;;;15.85;69.65;100505.80;1426542;91;20979;-84
2022/07/25 02:08:23;;;;;;;;;;;;;;;15.84;69.41;100504.16;1432673;91;21542;-84
2022/07/25 02:10:49;;;;;;;;;;;;;;;15.79;69.73;100500.20;1428777;91;20311;-84
2022/07/25 02:13:15;;;;;;;;;;;;;;;15.73;70.49;100500.07;1429108;91;20332;-84
2022/07/25 02:15:40;;;;;;;;;;;;;;;15.65;70.63;100494.77;1430340;91;20310;-84
2022/07/25 02:18:06;;;;;;;;;;;;;;;15.53;71.22;100494.36;1415183;91;20276;-84
2022/07/25 02:20:32;;;;;;;;;;;;;;;15.38;71.70;100493.48;1412975;92;20753;-85
2022/07/25 02:22:58;;;;;;;;;;;;;;;15.26;73.76;100497.05;1416761;92;20325;-85
2022/07/25 02:25:24;;;;;;;;;;;;;;;15.16;75.44;100497.27;1425931;92;20281;-85
2022/07/25 02:27:50;;;;;;;;;;;;;;;15.13;75.32;100497.62;1425429;91;20363;-85
2022/07/25 02:30:16;;;;;;;;;;;;;;;15.11;74.86;100495.65;1427216;92;20384;-85
2022/07/25 02:32:41;;;;;;;;;;;;;;;15.09;75.24;100495.81;1424030;92;20869;-85
2022/07/25 02:35:08;;;;;;;;;;;;;;;15.15;75.77;100500.95;1425689;92;20273;-85
2022/07/25 02:37:34;;;;;;;;;;;;;;;15.17;75.32;100505.61;1428767;91;20867;-87
2022/07/25 02:40:00;;;;;;;;;;;;;;;15.18;74.90;100500.59;1424135;92;20287;-87
2022/07/25 02:42:26;;;;;;;;;;;;;;;15.18;74.27;100501.92;1421977;92;20302;-87
2022/07/25 02:44:52;;;;;;;;;;;;;;;15.17;73.68;100502.12;1422057;92;20303;-86
2022/07/25 02:47:17;;;;;;;;;;;;;;;15.12;73.62;100504.79;1425972;91;20289;-86
2022/07/25 02:49:43;;;;;;;;;;;;;;;15.09;73.68;100501.14;1417681;91;20302;-88
2022/07/25 02:52:09;;;;;;;;;;;;;;;15.07;73.54;100510.31;1430055;91;20310;-87
2022/07/25 02:54:35;;;;;;;;;;;;;;;15.04;73.07;100508.00;1427495;91;20444;-87
2022/07/25 02:57:01;;;;;;;;;;;;;;;15.01;72.74;100509.17;1430317;91;20281;-87
2022/07/25 02:59:27;;;;;;;;;;;;;;;14.99;71.50;100511.69;1424746;91;20341;-88
2022/07/25 03:01:53;;;;;;;;;;;;;;;14.97;70.98;100511.05;1427058;91;20318;-85
2022/07/25 03:04:18;;;;;;;;;;;;;;;14.95;72.63;100512.55;1420349;91;20246;-86
2022/07/25 03:06:44;;;;;;;;;;;;;;;14.94;72.02;100515.40;1409340;91;20860;-86
2022/07/25 03:09:10;;;;;;;;;;;;;;;14.91;73.90;100518.41;1421041;91;20266;-87
2022/07/25 03:11:36;;;;;;;;;;;;;;;14.91;74.43;100516.58;1420983;91;20838;-87
2022/07/25 03:14:02;;;;;;;;;;;;;;;14.94;73.68;100517.55;1420693;91;20302;-87
2022/07/25 03:16:28;;;;;;;;;;;;;;;14.98;75.22;100520.70;1413183;91;20863;-87
2022/07/25 03:18:54;;;;;;;;;;;;;;;15.01;75.16;100521.67;1407660;93;20319;-87
2022/07/25 03:21:20;;;;;;;;;;;;;;;15.06;74.89;100525.48;1403706;93;20357;-85
2022/07/25 03:23:46;;;;;;;;;;;;;;;15.10;74.45;100524.63;1402946;91;20325;-84
2022/07/25 03:26:11;;;;;;;;;;;;;;;15.12;74.35;100519.95;1419166;91;20340;-85
2022/07/25 03:28:37;;;;;;;;;;;;;;;15.16;74.93;100523.92;1428219;91;20274;-86
2022/07/25 03:31:03;;;;;;;;;;;;;;;15.22;74.38;100527.72;1424921;91;20355;-86
2022/07/25 03:33:29;;;;;;;;;;;;;;;15.30;74.03;100533.02;1405453;91;21014;-85
2022/07/25 03:35:55;;;;;;;;;;;;;;;15.34;74.08;100532.50;1443555;90;20334;-89
2022/07/25 03:38:21;;;;;;;;;;;;;;;15.38;74.51;100532.97;1455353;90;20972;-88
2022/07/25 03:40:47;;;;;;;;;;;;;;;15.41;74.43;100530.45;1451901;90;20301;-88
2022/07/25 03:43:13;;;;;;;;;;;;;;;15.40;74.85;100527.47;1450770;90;20485;-89
2022/07/25 03:45:39;;;;;;;;;;;;;;;15.39;74.52;100527.12;1444078;90;20322;-89
2022/07/25 03:48:05;;;;;;;;;;;;;;;15.39;74.42;100524.45;1449012;90;20279;-88
2022/07/25 03:50:31;;;;;;;;;;;;;;;15.39;75.33;100527.12;1447616;89;20412;-88
2022/07/25 03:52:57;;;;;;;;;;;;;;;15.40;75.30;100522.14;1460148;89;21687;-88
2022/07/25 03:55:23;;;;;;;;;;;;;;;15.43;75.40;100527.12;1456697;89;20344;-89
2022/07/25 03:57:49;;;;;;;;;;;;;;;15.47;75.10;100528.41;1450580;89;20263;-89
2022/07/25 04:00:15;;;;;;;;;;;;;;;15.50;75.05;100533.39;1434951;89;20219;-88
2022/07/25 04:02:41;;;;;;;;;;;;;;;15.52;74.57;100530.88;1447652;89;20327;-88
2022/07/25 04:05:08;;;;;;;;;;;;;;;15.52;75.45;100532.20;1455887;89;20385;-85
2022/07/25 04:07:34;;;;;;;;;;;;;;;15.54;74.85;100528.05;1460944;89;20235;-84
2022/07/25 04:10:00;;;;;;;;;;;;;;;15.58;74.81;100528.83;1440903;89;20860;-83
2022/07/25 04:12:25;;;;;;;;;;;;;;;15.61;74.50;100534.31;1447476;89;20264;-83
2022/07/25 04:14:51;;;;;;;;;;;;;;;15.66;74.31;100529.80;1443833;90;20300;-86
2022/07/25 04:17:17;;;;;;;;;;;;;;;15.70;74.82;100527.94;1452414;90;20278;-86
2022/07/25 04:19:43;;;;;;;;;;;;;;;15.76;75.37;100534.40;1448035;90;20491;-86
2022/07/25 04:22:09;;;;;;;;;;;;;;;15.79;75.46;100524.70;1444087;89;20830;-86
2022/07/25 04:24:34;;;;;;;;;;;;;;;15.87;75.12;100525.15;1432432;91;20279;-85
2022/07/25 04:27:00;;;;;;;;;;;;;;;15.95;74.70;100525.08;1449416;91;20286;-85
2022/07/25 04:29:26;;;;;;;;;;;;;;;16.04;73.99;100524.50;1444251;90;20331;-86
2022/07/25 04:31:52;;;;;;;;;;;;;;;16.12;74.38;100523.92;1450160;89;20279;-86
2022/07/25 04:34:19;;;;;;;;;;;;;;;16.23;73.76;100522.15;1452469;89;20408;-86
2022/07/25 04:36:44;;;;;;;;;;;;;;;16.39;73.94;100525.66;1451568;90;20315;-86
2022/07/25 04:39:10;;;;;;;;;;;;;;;16.49;73.49;100521.39;1439881;90;20838;-86
2022/07/25 04:41:37;;;;;;;;;;;;;;;16.61;73.19;100523.41;1448367;91;20309;-86
2022/07/25 04:44:03;;;;;;;;;;;;;;;16.74;73.53;100524.59;1442701;91;20375;-88
2022/07/25 04:46:29;;;;;;;;;;;;;;;16.84;72.89;100521.17;1441858;91;20279;-86
2022/07/25 04:48:55;;;;;;;;;;;;;;;16.96;72.65;100525.02;1450205;90;20285;-89
2022/07/25 04:51:20;;;;;;;;;;;;;;;17.08;72.41;100526.70;1452498;90;20435;-87
2022/07/25 04:53:46;;;;;;;;;;;;;;;17.18;72.09;100518.40;1444837;89;20301;-88
2022/07/25 04:56:12;;;;;;;;;;;;;;;17.30;71.75;100520.89;1444014;90;20300;-87
2022/07/25 04:58:38;;;;;;;;;;;;;;;17.39;71.08;100518.41;1443063;90;20228;-85
2022/07/25 05:01:04;;;;;;;;;;;;;;;17.50;70.98;100512.56;1450962;90;20799;-84
2022/07/25 05:03:30;;;;;;;;;;;;;;;17.59;69.85;100519.44;1445182;90;20384;-85
2022/07/25 05:05:56;;;;;;;;;;;;;;;17.69;69.51;100515.61;1445421;91;20316;-87
2022/07/25 05:08:21;;;;;;;;;;;;;;;17.82;69.11;100511.75;1435882;90;20338;-86
2022/07/25 05:10:47;;;;;;;;;;;;;;;17.98;68.73;100515.50;1455721;90;20235;-86
2022/07/25 05:13:13;;;;;;;;;;;;;;;18.11;68.41;100509.92;1441796;90;20293;-87
2022/07/25 05:15:39;;;;;;;;;;;;;;;18.24;67.70;100511.34;1437222;90;20763;-86
2022/07/25 05:18:05;;;;;;;;;;;;;;;18.31;66.78;100512.22;1449498;89;20269;-86
2022/07/25 05:20:31;;;;;;;;;;;;;;;18.42;66.67;100513.02;1445982;89;20769;-85
2022/07/25 05:22:57;;;;;;;;;;;;;;;18.52;65.98;100513.17;1445739;90;20319;-86
2022/07/25 05:25:24;;;;;;;;;;;;;;;18.64;65.70;100511.09;1454890;90;20326;-86
2022/07/25 05:27:51;;;;;;;;;;;;;;;18.73;65.19;100503.71;1458153;90;20534;-85
2022/07/25 05:30:16;;;;;;;;;;;;;;;18.86;65.23;100503.78;1444115;90;20301;-86
2022/07/25 05:32:42;;;;;;;;;;;;;;;19.00;64.77;100511.89;1450612;90;20293;-86
2022/07/25 05:35:09;;;;;;;;;;;;;;;19.11;64.31;100509.97;1443391;90;20792;-85
2022/07/25 05:37:36;;;;;;;;;;;;;;;19.25;64.04;100509.47;1449140;90;20318;-86
2022/07/25 05:40:03;;;;;;;;;;;;;;;19.35;63.37;100512.09;1446729;90;20335;-86
2022/07/25 05:42:29;;;;;;;;;;;;;;;19.49;63.31;100506.76;1438314;88;20385;-87
2022/07/25 05:44:55;;;;;;;;;;;;;;;19.60;62.95;100507.50;1442852;91;20308;-87
2022/07/25 05:47:20;;;;;;;;;;;;;;;19.73;62.30;100504.84;1438501;90;20861;-87
2022/07/25 05:49:46;;;;;;;;;;;;;;;19.86;61.57;100501.34;1453618;90;20327;-88
2022/07/25 05:52:12;;;;;;;;;;;;;;;19.93;60.64;100501.33;1456779;89;20415;-88
2022/07/25 05:54:38;;;;;;;;;;;;;;;20.01;59.97;100504.64;1458751;89;20349;-88
2022/07/25 05:57:04;;;;;;;;;;;;;;;20.20;60.87;100501.63;1461728;89;20312;-88
2022/07/25 05:59:30;;;;;;;;;;;;;;;20.36;60.35;100504.91;1451521;89;20378;-85
2022/07/25 06:01:56;;;;;;;;;;;;;;;20.47;59.70;100498.89;1461263;89;20318;-86
2022/07/25 06:04:22;;;;;;;;;;;;;;;20.59;58.87;100503.94;1432482;90;20301;-84
2022/07/25 06:06:50;;;;;;;;;;;;;;;20.72;58.82;100505.26;1451543;89;20330;-84
2022/07/25 06:09:17;;;;;;;;;;;;;;;20.84;57.97;100505.94;1455703;89;20307;-84
2022/07/25 06:11:43;;;;;;;;;;;;;;;20.93;57.27;100504.66;1448981;89;20410;-85
2022/07/25 06:14:09;;;;;;;;;;;;;;;21.09;57.44;100502.83;1456996;89;20325;-86
2022/07/25 06:16:34;;;;;;;;;;;;;;;21.24;56.97;100504.41;1448064;89;20271;-84
2022/07/25 06:19:00;;;;;;;;;;;;;;;21.41;57.29;100501.53;1447866;89;20293;-85
2022/07/25 06:21:26;;;;;;;;;;;;;;;21.54;56.12;100493.35;1457149;88;20319;-85
2022/07/25 06:23:52;;;;;;;;;;;;;;;21.65;55.66;100495.05;1460062;88;20371;-85
2022/07/25 06:26:18;;;;;;;;;;;;;;;21.76;55.21;100491.65;1448307;90;20345;-85
2022/07/25 06:28:44;;;;;;;;;;;;;;;21.91;55.42;100481.36;1457683;89;20378;-82
2022/07/25 06:31:10;;;;;;;;;;;;;;;22.05;54.80;100486.11;1455312;89;20452;-84
2022/07/25 06:33:36;;;;;;;;;;;;;;;22.19;53.10;100489.01;1450443;90;20294;-84
2022/07/25 06:36:04;;;;;;;;;;;;;;;22.32;53.83;100481.30;1453470;89;21577;-84
2022/07/25 06:38:30;;;;;;;;;;;;;;;22.44;53.03;100484.92;1487259;89;20880;-84
2022/07/25 06:40:56;;;;;;;;;;;;;;;22.48;51.84;100483.41;1452760;90;20285;-84
2022/07/25 06:43:22;;;;;;;;;;;;;;;22.62;51.67;100484.62;1442073;89;20512;-83
2022/07/25 06:45:48;;;;;;;;;;;;;;;22.74;51.46;100481.45;1451118;89;20275;-83
2022/07/25 06:48:16;;;;;;;;;;;;;;;22.84;51.13;100481.72;1459271;88;20286;-84
2022/07/25 06:50:44;;;;;;;;;;;;;;;22.94;49.76;100479.86;1461900;89;20299;-84
2022/07/25 06:53:10;;;;;;;;;;;;;;;23.12;51.03;100481.72;1444429;89;20411;-85
2022/07/25 06:55:38;;;;;;;;;;;;;;;23.29;50.52;100474.61;1455543;88;20862;-86
2022/07/25 06:58:04;;;;;;;;;;;;;;;23.30;49.13;100471.37;1457017;89;20322;-85
2022/07/25 07:00:30;;;;;;;;;;;;;;;23.41;47.86;100473.29;1452337;89;20277;-85
2022/07/25 07:03:01;;;;;;;;;;;;;;;23.53;47.67;100474.66;1446410;90;20301;-85
2022/07/25 07:05:30;;;;;;;;;;;;;;;23.54;47.39;100472.28;1430729;90;20310;-84
2022/07/25 07:08:18;;;;;;;;;;;;;;;23.64;48.39;100471.16;1430060;90;20309;-83
2022/07/25 07:10:44;;;;;;;;;;;;;;;23.74;47.46;100467.94;1439579;91;20415;-84
2022/07/25 07:13:12;;;;;;;;;;;;;;;23.91;47.93;100463.98;1437172;90;20889;-84
2022/07/25 07:15:40;;;;;;;;;;;;;;;24.04;47.01;100465.11;1441228;90;20785;-84
2022/07/25 07:18:06;;;;;;;;;;;;;;;24.13;46.05;100477.75;1434187;90;20317;-85
2022/07/25 07:20:32;;;;;;;;;;;;;;;24.14;45.54;100469.42;1437874;90;20426;-84
2022/07/25 07:22:59;;;;;;;;;;;;;;;24.18;45.58;100469.22;1447571;90;20264;-83
2022/07/25 07:25:25;;;;;;;;;;;;;;;24.30;45.75;100475.44;1450345;90;20940;-84
2022/07/25 07:27:50;;;;;;;;;;;;;;;24.36;46.00;100474.20;1439847;90;20281;-84
2022/07/25 07:30:17;;;;;;;;;;;;;;;24.57;46.50;100476.33;1448185;88;20494;-84
2022/07/25 07:32:44;;;;;;;;;;;;;;;24.78;45.35;100479.44;1437135;90;20411;-84
2022/07/25 07:35:11;;;;;;;;;;;;;;;24.90;43.66;100474.80;1452551;90;20308;-84
2022/07/25 07:37:37;;;;;;;;;;;;;;;25.03;44.06;100470.97;1450047;88;20404;-84
2022/07/25 07:40:08;;;;;;;;;;;;;;;25.05;43.39;100469.67;1447729;90;20550;-84
2022/07/25 07:42:43;;;;;;;;;;;;;;;25.13;41.63;100469.28;1398470;92;20833;-84
2022/07/25 07:45:13;;;;;;;;;;;;;;;25.30;43.16;100475.30;1391848;93;20284;-84
2022/07/25 07:47:40;;;;;;;;;;;;;;;25.48;40.61;100471.01;1398968;91;20357;-85
2022/07/25 07:50:07;;;;;;;;;;;;;;;25.60;41.28;100469.58;1408887;92;20283;-85
2022/07/25 07:52:33;;;;;;;;;;;;;;;25.71;39.16;100467.86;1411644;93;20291;-84
2022/07/25 07:57:46;;;;;;;;;;;;;;;25.74;39.25;100452.45;1397822;93;20850;-85
2022/07/25 08:00:13;;;;;;;;;;;;;;;25.62;39.22;100446.59;1376753;95;20324;-85
2022/07/25 08:02:45;;;;;;;;;;;;;;;25.59;39.47;100448.44;1438331;95;20243;-84
2022/07/25 08:05:15;;;;;;;;;;;;;;;25.59;38.91;100444.37;1415493;92;20252;-84
2022/07/25 08:07:41;;;;;;;;;;;;;;;25.72;39.02;100444.59;1409831;92;20311;-85
2022/07/25 08:10:08;;;;;;;;;;;;;;;25.86;39.08;100437.76;1408931;92;20811;-84
2022/07/25 08:12:37;;;;;;;;;;;;;;;25.92;39.31;100435.94;1394697;93;20870;-85
2022/07/25 08:15:04;;;;;;;;;;;;;;;26.06;39.96;100433.70;1406616;93;20398;-84
2022/07/25 08:17:32;;;;;;;;;;;;;;;26.16;39.54;100424.37;1387341;93;20366;-85
2022/07/25 08:19:58;;;;;;;;;;;;;;;26.15;36.77;100425.96;1374978;94;21487;-85
2022/07/25 08:22:28;;;;;;;;;;;;;;;26.40;38.06;100424.13;1399744;91;20339;-84
2022/07/25 08:24:54;;;;;;;;;;;;;;;26.49;36.85;100420.70;1410539;92;20440;-84
2022/07/25 08:27:20;;;;;;;;;;;;;;;26.57;35.97;100423.55;1419562;92;20340;-85
2022/07/25 08:29:46;;;;;;;;;;;;;;;26.64;36.37;100427.41;1410123;92;20312;-86
2022/07/25 08:32:12;;;;;;;;;;;;;;;26.68;36.60;100427.20;1408614;92;20526;-84
2022/07/25 08:34:46;;;;;;;;;;;;;;;26.85;36.05;100430.65;1396603;92;20304;-84
2022/07/25 08:37:11;;;;;;;;;;;;;;;26.81;35.23;100428.14;1405447;92;20364;-82
2022/07/25 08:39:40;;;;;;;;;;;;;;;26.97;36.31;100426.42;1410165;92;20245;-82
2022/07/25 08:42:07;;;;;;;;;;;;;;;27.18;36.95;100428.82;1416404;92;20397;-82
2022/07/25 08:44:35;;;;;;;;;;;;;;;27.36;35.75;100424.89;1397182;92;20372;-81
2022/07/25 08:47:00;;;;;;;;;;;;;;;27.35;33.92;100420.55;1403564;92;20379;-82
2022/07/25 08:49:27;;;;;;;;;;;;;;;27.22;33.96;100417.73;1400585;93;20826;-81
2022/07/25 08:51:55;;;;;;;;;;;;;;;27.31;33.91;100413.46;1406366;93;20386;-82
2022/07/25 08:54:22;;;;;;;;;;;;;;;27.50;34.40;100416.59;1414190;92;20389;-86
2022/07/25 08:56:48;;;;;;;;;;;;;;;27.70;35.56;100414.56;1421108;92;20282;-82
2022/07/25 08:59:14;;;;;;;;;;;;;;;27.74;32.89;100411.61;1398997;92;20314;-86
2022/07/25 09:01:41;;;;;;;;;;;;;;;27.87;34.33;100411.16;1395738;94;21242;-86
2022/07/25 09:04:08;;;;;;;;;;;;;;;27.93;34.08;100402.49;1363302;94;20896;-86
2022/07/25 09:06:34;;;;;;;;;;;;;;;28.04;33.37;100408.27;1369149;95;20473;-85
2022/07/25 09:09:03;;;;;;;;;;;;;;;28.25;34.42;100415.98;1390685;94;20299;-84
2022/07/25 09:11:34;;;;;;;;;;;;;;;28.08;31.74;100412.12;1386753;94;20982;-83
2022/07/25 09:14:03;;;;;;;;;;;;;;;28.03;32.31;100409.91;1394947;94;20472;-83
2022/07/25 09:16:32;;;;;;;;;;;;;;;28.13;33.40;100415.39;1397025;94;20341;-83
2022/07/25 09:19:07;;;;;;;;;;;;;;;28.23;32.15;100412.73;1384354;94;20406;-83
2022/07/25 09:21:32;;;;;;;;;;;;;;;28.10;30.99;100411.29;1363633;95;20321;-83
2022/07/25 09:24:07;;;;;;;;;;;;;;;28.24;32.03;100408.10;1390594;94;20352;-84
2022/07/25 09:26:51;;;;;;;;;;;;;;;28.15;30.21;100405.07;1384801;94;20307;-84
2022/07/25 09:29:26;;;;;;;;;;;;;;;28.14;29.45;100411.61;1383594;94;20360;-91
2022/07/25 09:31:53;;;;;;;;;;;;;;;28.28;31.68;100411.91;1392741;94;21010;-87
2022/07/25 09:34:37;;;;;;;;;;;;;;;28.35;31.72;100410.59;1392336;94;20316;-87
2022/07/25 09:37:06;;;;;;;;;;;;;;;28.17;31.21;100412.44;1388008;94;20387;-89
2022/07/25 09:39:49;;;;;;;;;;;;;;;28.06;29.60;100401.22;1385489;94;20350;-89
2022/07/25 09:42:25;;;;;;;;;;;;;;;28.19;31.75;100407.52;1394789;94;20404;-90
2022/07/25 09:45:04;;;;;;;;;;;;;;;28.46;32.45;100399.80;1395920;93;20307;-91
2022/07/25 09:47:32;;;;;;;;;;;;;;;28.70;31.83;100406.38;1389391;93;20480;-91
2022/07/25 09:49:58;;;;;;;;;;;;;;;28.60;30.25;100397.36;1392551;94;20307;-90
2022/07/25 09:52:24;;;;;;;;;;;;;;;28.57;30.45;100398.74;1388331;94;20370;-91
2022/07/25 09:54:50;;;;;;;;;;;;;;;28.84;32.15;100396.34;1407572;92;20275;-91
2022/07/25 09:57:16;;;;;;;;;;;;;;;28.88;30.53;100396.06;1418495;92;20443;-89
2022/07/25 09:59:43;;;;;;;;;;;;;;;29.10;30.89;100393.95;1407516;92;20318;-90
2022/07/25 10:02:48;;;;;;;;;;;;;;;29.34;32.45;100390.67;1418287;92;20335;-90
2022/07/25 10:05:34;;;;;;;;;;;;;;;29.59;31.86;100387.92;1409281;92;20342;-90
2022/07/25 10:08:04;;;;;;;;;;;;;;;29.79;31.66;100383.56;1410477;90;20423;-92
2022/07/25 10:10:33;;;;;;;;;;;;;;;29.85;31.01;100391.45;1409350;92;20414;-90
2022/07/25 10:13:02;;;;;;;;;;;;;;;29.93;30.74;100379.72;1418213;92;20421;-90
2022/07/25 10:15:39;;;;;;;;;;;;;;;29.97;30.36;100378.05;1417584;92;20428;-89
2022/07/25 10:18:07;;;;;;;;;;;;;;;29.95;29.54;100370.69;1420384;92;20297;-90
2022/07/25 10:20:34;;;;;;;;;;;;;;;30.14;31.18;100371.71;1413062;90;20914;-90
2022/07/25 10:23:00;;;;;;;;;;;;;;;30.41;31.45;100368.59;1406237;92;20342;-90
2022/07/25 10:25:27;;;;;;;;;;;;;;;30.42;28.77;100372.98;1413744;92;20290;-90
2022/07/25 10:27:59;;;;;;;;;;;;;;;30.25;29.12;100373.89;1415745;92;20880;-88
2022/07/25 10:30:26;;;;;;;;;;;;;;;30.25;28.52;100373.89;1411228;90;20342;-87
2022/07/25 10:33:02;;;;;;;;;;;;;;;30.02;28.72;100365.77;1411027;92;20334;-91
2022/07/25 10:35:28;;;;;;;;;;;;;;;30.17;29.23;100359.42;1412841;92;20810;-91
2022/07/25 10:37:56;;;;;;;;;;;;;;;30.39;30.11;100359.89;1411998;92;20261;-90
2022/07/25 10:40:28;;;;;;;;;;;;;;;30.45;28.36;100356.03;1403557;92;20305;-90
2022/07/25 10:43:13;;;;;;;;;;;;;;;30.49;27.66;100351.63;1414655;92;21213;-91
2022/07/25 10:45:48;;;;;;;;;;;;;;;30.61;27.30;100346.38;1408952;92;20358;-91
2022/07/25 10:48:23;;;;;;;;;;;;;;;30.46;27.07;100344.56;1415967;90;20287;-90
2022/07/25 10:50:59;;;;;;;;;;;;;;;30.25;26.94;100346.04;1418859;92;22121;-90
2022/07/25 10:53:30;;;;;;;;;;;;;;;30.13;27.50;100338.15;1409706;92;20247;-90
2022/07/25 10:55:59;;;;;;;;;;;;;;;30.08;27.64;100339.53;1407733;92;20524;-90
2022/07/25 10:58:25;;;;;;;;;;;;;;;30.03;26.64;100334.64;1412121;92;20737;-87
2022/07/25 11:00:52;;;;;;;;;;;;;;;30.07;25.86;100336.55;1407080;91;20342;-90
2022/07/25 11:03:19;;;;;;;;;;;;;;;30.23;26.96;100324.21;1399051;92;20268;-91
2022/07/25 11:05:47;;;;;;;;;;;;;;;30.32;26.32;100334.80;1409038;92;20335;-92
2022/07/25 11:08:13;;;;;;;;;;;;;;;30.50;25.15;100320.52;1425756;91;20224;-91
2022/07/25 11:10:39;;;;;;;;;;;;;;;30.44;26.23;100318.92;1411839;92;20402;-89
2022/07/25 11:13:08;;;;;;;;;;;;;;;30.53;27.45;100319.14;1408054;91;20303;-91
2022/07/25 11:15:34;;;;;;;;;;;;;;;30.40;26.43;100315.11;1412631;92;20328;-91
2022/07/25 11:18:00;;;;;;;;;;;;;;;30.51;26.41;100315.31;1416340;92;20767;-90
2022/07/25 11:20:27;;;;;;;;;;;;;;;30.69;26.53;100310.27;1392800;92;20292;-90
2022/07/25 11:22:54;;;;;;;;;;;;;;;30.80;25.30;100309.13;1384356;93;20267;-91
2022/07/25 11:25:22;;;;;;;;;;;;;;;30.94;27.05;100300.55;1411328;93;20825;-90
2022/07/25 11:27:58;;;;;;;;;;;;;;;30.84;25.12;100292.42;1401951;92;20760;-89
2022/07/25 11:30:27;;;;;;;;;;;;;;;31.23;27.32;100288.80;1404229;92;20306;-90
2022/07/25 11:33:00;;;;;;;;;;;;;;;31.39;25.96;100289.47;1409022;92;20334;-88
2022/07/25 11:35:28;;;;;;;;;;;;;;;31.52;25.80;100288.80;1409611;92;20909;-88
2022/07/25 11:37:55;;;;;;;;;;;;;;;31.80;26.66;100280.27;1414133;91;20312;-90
2022/07/25 11:40:22;;;;;;;;;;;;;;;32.03;26.27;100281.92;1417736;92;20355;-90
2022/07/25 11:42:53;;;;;;;;;;;;;;;32.05;25.74;100275.05;1424805;91;20384;-90
2022/07/25 11:45:28;;;;;;;;;;;;;;;31.77;24.77;100271.83;1406317;92;20416;-88
2022/07/25 11:48:09;;;;;;;;;;;;;;;31.89;25.44;100273.02;1416490;91;20311;-89
2022/07/25 11:50:37;;;;;;;;;;;;;;;32.00;25.86;100271.56;1336537;92;20856;-90
2022/07/25 11:53:06;;;;;;;;;;;;;;;31.94;26.47;100267.23;1447748;92;20304;-89
2022/07/25 11:55:39;;;;;;;;;;;;;;;31.73;23.66;100266.11;1403658;93;20339;-87
2022/07/25 11:58:06;;;;;;;;;;;;;;;31.56;22.78;100258.94;1403473;93;20446;-88
2022/07/25 12:00:44;;;;;;;;;;;;;;;31.71;23.64;100260.14;1405670;92;20356;-91
2022/07/25 12:06:47;;;;;;;;;;;;;;;31.62;24.23;100249.55;1349686;96;21146;-89
2022/07/25 12:09:22;;;;;;;;;;;;;;;31.45;25.01;100248.13;1349249;96;21833;-90
2022/07/25 12:11:48;;;;;;;;;;;;;;;31.64;23.60;100241.33;1370061;96;20348;-90
2022/07/25 12:14:15;;;;;;;;;;;;;;;31.82;25.33;100236.17;1365086;94;20348;-90
2022/07/25 12:16:41;;;;;;;;;;;;;;;31.86;24.30;100239.41;1369020;95;21075;-90
2022/07/25 12:19:19;;;;;;;;;;;;;;;31.77;23.70;100234.34;1371410;95;20310;-90
2022/07/25 12:21:45;;;;;;;;;;;;;;;31.77;23.66;100237.63;1357823;96;20414;-90
2022/07/25 12:24:11;;;;;;;;;;;;;;;31.94;24.61;100228.92;1364925;96;20420;-90
2022/07/25 12:26:37;;;;;;;;;;;;;;;32.18;24.99;100229.69;1369775;95;20394;-87
2022/07/25 12:29:05;;;;;;;;;;;;;;;32.20;23.21;100226.66;1379647;94;20310;-89
2022/07/25 12:31:31;;;;;;;;;;;;;;;32.11;23.56;100219.64;1372653;94;20474;-91
2022/07/25 12:33:58;;;;;;;;;;;;;;;32.09;23.63;100217.78;1381570;94;20439;-89
2022/07/25 12:36:24;;;;;;;;;;;;;;;31.54;22.77;100222.88;1404280;93;20411;-91
2022/07/25 12:38:49;;;;;;;;;;;;;;;31.74;24.81;100217.14;1411931;92;20860;-90
2022/07/25 12:41:21;;;;;;;;;;;;;;;31.58;23.09;100212.41;1423246;92;20529;-91
2022/07/25 12:43:44;;;;;;;;;;;;;;;31.85;24.45;100209.06;1452133;89;20305;-90